Time;durP1;ratioP1;P1;durP2;ratioP2;P2;SDS_P1;SDS_P2;PMS_P1;PMS_P2;Temp;Humidity;BMP_temperature;BMP_pressure;BME280_temperature;BME280_humidity;BME280_pressure;Samples;Min_cycle;Max_cycle;Signal;HPM_P1;HPM_P2
2021/12/03 00:00:56;;;;;;;76.45;39.05;;;16.20;62.20;;;;;;5058233;28;20051;-22
2021/12/03 00:03:21;;;;;;;83.72;41.75;;;16.20;62.40;;;;;;5039162;28;20532;-27
2021/12/03 00:05:48;;;;;;;82.05;40.47;;;16.20;62.10;;;;;;5020960;28;20029;-25
2021/12/03 00:08:13;;;;;;;78.22;41.45;;;16.20;62.50;;;;;;5042943;28;20033;-26
2021/12/03 00:10:39;;;;;;;85.63;42.08;;;16.20;62.20;;;;;;5058471;28;20036;-24
2021/12/03 00:13:06;;;;;;;78.68;40.45;;;16.20;62.20;;;;;;5058474;28;20036;-25
2021/12/03 00:15:31;;;;;;;78.35;38.33;;;16.20;62.20;;;;;;5058413;28;20017;-26
2021/12/03 00:17:57;;;;;;;76.75;37.42;;;16.20;62.00;;;;;;5058083;28;20059;-22
2021/12/03 00:20:24;;;;;;;69.88;35.67;;;16.20;62.10;;;;;;5047707;28;20022;-28
2021/12/03 00:22:51;;;;;;;68.53;34.97;;;16.20;62.20;;;;;;5051301;28;20467;-21
2021/12/03 00:25:16;;;;;;;69.43;35.83;;;16.20;62.00;;;;;;5052758;28;20039;-23
2021/12/03 00:27:42;;;;;;;67.93;36.38;;;16.10;62.00;;;;;;5058176;28;20477;-26
2021/12/03 00:30:10;;;;;;;65.03;33.30;;;16.20;61.80;;;;;;5058112;28;20057;-20
2021/12/03 00:32:35;;;;;;;61.33;32.17;;;16.20;61.90;;;;;;5058139;28;20025;-24
2021/12/03 00:35:01;;;;;;;58.17;31.00;;;16.10;61.60;;;;;;5058137;28;20473;-27
2021/12/03 00:37:26;;;;;;;57.03;29.73;;;16.10;62.80;;;;;;5058461;28;20201;-23
2021/12/03 00:39:52;;;;;;;58.53;30.38;;;16.10;61.60;;;;;;5057226;28;20021;-30
2021/12/03 00:42:19;;;;;;;54.30;27.40;;;16.10;61.90;;;;;;5058031;28;20035;-23
2021/12/03 00:44:50;;;;;;;55.67;27.58;;;16.10;61.80;;;;;;5056340;28;20100;-28
2021/12/03 00:47:15;;;;;;;49.78;25.88;;;16.10;61.60;;;;;;5057906;28;20025;-27
2021/12/03 00:49:41;;;;;;;49.72;25.90;;;16.10;61.50;;;;;;5057942;28;20394;-27
2021/12/03 00:52:07;;;;;;;48.63;25.30;;;16.10;62.50;;;;;;5057814;28;20588;-28
2021/12/03 00:54:32;;;;;;;43.60;24.13;;;16.20;61.60;;;;;;5057836;28;20013;-24
2021/12/03 00:56:58;;;;;;;44.47;23.13;;;16.10;61.10;;;;;;5057864;28;20024;-26
2021/12/03 00:59:24;;;;;;;46.50;25.02;;;16.20;61.50;;;;;;5057579;28;20021;-24
2021/12/03 01:01:50;;;;;;;42.05;22.38;;;16.20;61.30;;;;;;5057422;28;20021;-23
2021/12/03 01:04:15;;;;;;;42.10;22.85;;;16.20;61.10;;;;;;5057367;28;20117;-21
2021/12/03 01:06:41;;;;;;;41.75;22.40;;;16.20;61.30;;;;;;5057575;28;20090;-22
2021/12/03 01:09:07;;;;;;;37.17;21.55;;;16.10;61.20;;;;;;5057563;28;20036;-32
2021/12/03 01:11:32;;;;;;;37.72;21.20;;;16.10;61.20;;;;;;5022803;28;20036;-23
2021/12/03 01:14:00;;;;;;;38.95;20.67;;;16.10;61.10;;;;;;5057349;28;20032;-27
2021/12/03 01:16:27;;;;;;;35.97;20.05;;;16.10;61.10;;;;;;5057093;28;20136;-22
2021/12/03 01:18:52;;;;;;;36.83;19.88;;;16.10;61.40;;;;;;5057447;28;20021;-23
2021/12/03 01:21:18;;;;;;;36.88;19.73;;;16.10;61.20;;;;;;5057071;28;20025;-27
2021/12/03 01:23:45;;;;;;;35.88;18.42;;;16.10;61.10;;;;;;5057341;28;20016;-28
2021/12/03 01:26:10;;;;;;;34.15;18.33;;;16.10;60.80;;;;;;5057290;28;20108;-21
2021/12/03 01:28:36;;;;;;;33.40;17.52;;;16.10;61.20;;;;;;5057100;28;20052;-24
2021/12/03 01:31:02;;;;;;;32.83;17.88;;;16.10;61.00;;;;;;5056870;28;20064;-21
2021/12/03 01:33:27;;;;;;;32.25;17.40;;;16.10;61.10;;;;;;5057327;28;20036;-24
2021/12/03 01:35:53;;;;;;;31.38;17.55;;;16.10;61.10;;;;;;5056985;28;20029;-26
2021/12/03 01:38:19;;;;;;;33.55;17.95;;;16.10;61.30;;;;;;5057091;28;20060;-20
2021/12/03 01:40:45;;;;;;;29.27;16.42;;;16.10;61.20;;;;;;5057160;28;20079;-22
2021/12/03 01:43:14;;;;;;;30.08;16.75;;;16.10;61.40;;;;;;5056789;28;20047;-25
2021/12/03 01:45:39;;;;;;;26.73;15.55;;;16.00;61.60;;;;;;5057071;28;20021;-27
2021/12/03 01:48:05;;;;;;;28.58;15.48;;;16.00;60.90;;;;;;5056657;28;20056;-23
2021/12/03 01:50:39;;;;;;;27.13;16.25;;;16.10;61.10;;;;;;5056740;28;20017;-26
2021/12/03 01:53:05;;;;;;;23.50;13.98;;;16.00;61.30;;;;;;5056633;28;20692;-28
2021/12/03 01:55:31;;;;;;;23.70;13.73;;;16.00;61.20;;;;;;5049885;28;20049;-25
2021/12/03 01:57:56;;;;;;;25.00;14.20;;;16.00;61.30;;;;;;5056504;28;20055;-25
2021/12/03 02:00:53;;;;;;;26.48;14.40;;;16.00;61.10;;;;;;5041601;28;20040;-20
2021/12/03 02:03:20;;;;;;;24.88;14.48;;;16.00;61.20;;;;;;5039190;28;20033;-24
2021/12/03 02:05:46;;;;;;;25.83;13.93;;;16.00;61.60;;;;;;5036548;28;20057;-22
2021/12/03 02:08:12;;;;;;;21.27;12.82;;;16.00;60.90;;;;;;5039905;28;20029;-23
2021/12/03 02:10:39;;;;;;;23.95;13.50;;;16.00;61.20;;;;;;5055080;28;20032;-26
2021/12/03 02:13:04;;;;;;;22.20;13.38;;;16.00;61.70;;;;;;5038992;28;20470;-31
2021/12/03 02:15:30;;;;;;;22.58;13.27;;;16.00;60.90;;;;;;5055731;28;20036;-23
2021/12/03 02:17:55;;;;;;;22.30;13.43;;;16.00;61.10;;;;;;5056407;28;20021;-28
2021/12/03 02:20:21;;;;;;;22.55;13.13;;;16.00;61.00;;;;;;5056085;28;20036;-25
2021/12/03 02:22:47;;;;;;;20.70;12.50;;;16.00;61.70;;;;;;5056186;28;20029;-23
2021/12/03 02:25:22;;;;;;;20.45;11.70;;;16.00;60.90;;;;;;5056624;28;20373;-22
2021/12/03 02:27:56;;;;;;;19.35;12.23;;;16.00;60.90;;;;;;5056255;28;20548;-25
2021/12/03 02:30:22;;;;;;;18.52;11.35;;;16.10;60.50;;;;;;5056314;28;20021;-21
2021/12/03 02:32:49;;;;;;;18.38;11.10;;;16.20;60.30;;;;;;5056038;28;20032;-28
2021/12/03 02:35:19;;;;;;;19.90;11.98;;;16.10;60.70;;;;;;5056367;28;20029;-27
2021/12/03 02:37:44;;;;;;;17.70;10.68;;;16.00;60.60;;;;;;5056473;28;20025;-28
2021/12/03 02:40:10;;;;;;;18.63;10.77;;;16.00;60.90;;;;;;5056254;28;20079;-25
2021/12/03 02:42:36;;;;;;;16.23;10.82;;;16.00;60.90;;;;;;5055787;28;20027;-22
2021/12/03 02:45:03;;;;;;;18.45;10.77;;;16.00;61.00;;;;;;5056221;28;20108;-20
2021/12/03 02:47:28;;;;;;;15.07;9.82;;;16.00;61.10;;;;;;5056103;28;20124;-27
2021/12/03 02:49:54;;;;;;;16.67;10.98;;;16.00;61.00;;;;;;5055827;28;20064;-25
2021/12/03 02:52:19;;;;;;;17.23;11.10;;;16.00;60.90;;;;;;5055954;28;20033;-26
2021/12/03 02:54:45;;;;;;;18.23;10.68;;;16.00;61.30;;;;;;5055918;28;20025;-27
2021/12/03 02:57:10;;;;;;;15.63;9.77;;;16.00;61.00;;;;;;5056160;28;20029;-29
2021/12/03 02:59:36;;;;;;;15.25;10.27;;;15.90;61.40;;;;;;5055997;28;20029;-25
2021/12/03 03:02:02;;;;;;;15.52;10.05;;;15.90;60.90;;;;;;5056468;28;20025;-22
2021/12/03 03:04:27;;;;;;;14.95;9.75;;;16.00;61.20;;;;;;5059636;28;20021;-27
2021/12/03 03:06:53;;;;;;;16.38;10.15;;;15.90;61.30;;;;;;5059957;28;20071;-26
2021/12/03 03:09:19;;;;;;;16.30;9.75;;;15.90;61.30;;;;;;5066208;28;20017;-24
2021/12/03 03:11:44;;;;;;;16.73;9.77;;;15.90;61.20;;;;;;5079357;28;20473;-27
2021/12/03 03:14:10;;;;;;;14.88;9.40;;;15.90;60.80;;;;;;5065651;28;20393;-30
2021/12/03 03:16:36;;;;;;;13.68;8.95;;;15.90;61.00;;;;;;5072000;28;20025;-28
2021/12/03 03:19:19;;;;;;;12.82;8.82;;;15.90;60.70;;;;;;5079471;28;20476;-21
2021/12/03 03:21:45;;;;;;;12.60;8.87;;;16.00;60.70;;;;;;5079222;28;20070;-25
2021/12/03 03:24:11;;;;;;;13.68;9.05;;;16.10;60.30;;;;;;5079391;28;20074;-24
2021/12/03 03:26:37;;;;;;;13.15;8.02;;;16.10;60.00;;;;;;5061525;28;20040;-24
2021/12/03 03:29:04;;;;;;;12.27;8.57;;;16.20;60.10;;;;;;5079020;28;20028;-22
2021/12/03 03:31:34;;;;;;;10.15;7.63;;;16.20;59.70;;;;;;5078657;28;20502;-24
2021/12/03 03:34:00;;;;;;;10.18;7.60;;;16.10;59.90;;;;;;5078710;28;20064;-27
2021/12/03 03:36:25;;;;;;;10.23;7.28;;;16.10;60.30;;;;;;5079047;28;20025;-27
2021/12/03 03:38:51;;;;;;;10.77;7.60;;;16.10;60.00;;;;;;5079194;28;20028;-25
2021/12/03 03:41:17;;;;;;;11.23;7.55;;;16.10;59.70;;;;;;5078611;28;20047;-24
2021/12/03 03:43:42;;;;;;;9.95;7.47;;;16.20;59.70;;;;;;5078513;28;20036;-26
2021/12/03 03:46:08;;;;;;;8.55;7.28;;;16.10;59.70;;;;;;5068422;28;20030;-21
2021/12/03 03:48:33;;;;;;;10.20;7.53;;;16.20;60.60;;;;;;5041242;28;20055;-24
2021/12/03 03:50:59;;;;;;;9.80;6.68;;;16.10;59.90;;;;;;5038626;28;20422;-24
2021/12/03 03:53:25;;;;;;;8.70;6.50;;;16.10;59.80;;;;;;5020686;28;20055;-28
2021/12/03 03:55:50;;;;;;;8.50;6.72;;;16.10;60.00;;;;;;5049931;28;20071;-24
2021/12/03 03:58:16;;;;;;;8.82;6.68;;;16.10;59.90;;;;;;5052847;28;20039;-26
2021/12/03 04:00:43;;;;;;;9.30;6.40;;;16.10;59.90;;;;;;5047291;28;20022;-25
2021/12/03 04:03:09;;;;;;;8.55;6.60;;;16.10;59.80;;;;;;5038515;28;20104;-23
2021/12/03 04:05:34;;;;;;;8.32;6.32;;;16.10;59.60;;;;;;5038525;28;20044;-29
2021/12/03 04:08:00;;;;;;;7.57;6.47;;;16.10;59.70;;;;;;5038434;28;20025;-25
2021/12/03 04:10:26;;;;;;;6.45;5.68;;;16.20;59.70;;;;;;5038637;28;20026;-29
2021/12/03 04:12:51;;;;;;;9.48;6.07;;;16.10;59.60;;;;;;5040267;28;20036;-29
2021/12/03 04:15:17;;;;;;;5.97;5.47;;;16.20;59.60;;;;;;5058924;28;20110;-29
2021/12/03 04:17:43;;;;;;;6.65;5.80;;;16.20;59.70;;;;;;5078639;28;20495;-23
2021/12/03 04:20:10;;;;;;;6.13;5.47;;;16.10;59.60;;;;;;5078283;28;20042;-26
2021/12/03 04:22:36;;;;;;;8.07;6.05;;;16.20;59.60;;;;;;5078366;28;20381;-27
2021/12/03 04:25:01;;;;;;;6.93;5.65;;;16.10;59.70;;;;;;5078016;28;20021;-20
2021/12/03 04:27:27;;;;;;;7.95;4.97;;;16.10;59.80;;;;;;5078055;28;20029;-27
2021/12/03 04:29:53;;;;;;;6.65;5.15;;;16.20;59.80;;;;;;5051485;28;20026;-27
2021/12/03 04:32:19;;;;;;;5.13;4.65;;;16.20;59.70;;;;;;5048604;28;20032;-23
2021/12/03 04:34:45;;;;;;;6.70;5.88;;;16.20;59.60;;;;;;5037765;28;20030;-21
2021/12/03 04:37:11;;;;;;;5.38;4.82;;;16.20;59.70;;;;;;5038014;28;20036;-27
2021/12/03 04:39:36;;;;;;;6.40;5.60;;;16.20;59.60;;;;;;5037850;28;20034;-21
2021/12/03 04:42:02;;;;;;;5.45;4.93;;;16.20;59.70;;;;;;5037796;28;20035;-23
2021/12/03 04:44:28;;;;;;;5.18;4.68;;;16.20;59.70;;;;;;5037641;28;20021;-20
2021/12/03 04:46:53;;;;;;;5.43;4.85;;;16.10;59.80;;;;;;5037879;28;20060;-27
2021/12/03 04:49:19;;;;;;;5.65;5.15;;;16.10;59.80;;;;;;5037542;28;20144;-23
2021/12/03 04:51:45;;;;;;;5.90;5.28;;;16.10;59.80;;;;;;5037446;28;20544;-21
2021/12/03 04:54:10;;;;;;;6.13;5.53;;;16.10;59.80;;;;;;5037490;28;20025;-23
2021/12/03 04:56:36;;;;;;;5.60;5.05;;;16.10;60.00;;;;;;5055168;28;20490;-26
2021/12/03 04:59:02;;;;;;;5.03;4.60;;;16.10;59.80;;;;;;5057386;28;20048;-28
2021/12/03 05:01:27;;;;;;;5.78;5.28;;;16.20;59.80;;;;;;5057446;28;20024;-26
2021/12/03 05:03:53;;;;;;;5.63;5.13;;;16.10;59.90;;;;;;5057330;28;20013;-30
2021/12/03 05:06:29;;;;;;;6.00;5.50;;;16.10;59.80;;;;;;5057351;28;20061;-22
2021/12/03 05:08:54;;;;;;;5.95;5.45;;;16.10;59.90;;;;;;5048672;28;20034;-26
2021/12/03 05:11:20;;;;;;;5.28;4.78;;;16.10;60.00;;;;;;5037227;28;20036;-23
2021/12/03 05:13:46;;;;;;;6.07;5.55;;;16.10;59.70;;;;;;5050318;28;20127;-27
2021/12/03 05:16:11;;;;;;;5.45;4.88;;;16.10;59.70;;;;;;5040207;28;20029;-24
2021/12/03 05:18:37;;;;;;;5.30;4.80;;;16.20;59.50;;;;;;5057807;28;20061;-26
2021/12/03 05:21:03;;;;;;;5.05;4.65;;;16.10;59.70;;;;;;5057296;28;20029;-20
2021/12/03 05:23:29;;;;;;;5.20;4.80;;;16.10;59.60;;;;;;5057522;28;20021;-23
2021/12/03 05:25:55;;;;;;;4.72;4.32;;;16.10;59.70;;;;;;5057171;28;20028;-27
2021/12/03 05:28:20;;;;;;;4.57;4.28;;;16.10;59.70;;;;;;5057258;28;20032;-26
2021/12/03 05:30:46;;;;;;;4.53;4.20;;;16.10;59.60;;;;;;5057409;28;20021;-23
2021/12/03 05:33:12;;;;;;;4.57;4.18;;;16.10;59.60;;;;;;5057151;28;20036;-23
2021/12/03 05:35:37;;;;;;;4.80;4.40;;;16.10;59.60;;;;;;5057367;28;20029;-25
2021/12/03 05:38:03;;;;;;;4.30;4.00;;;16.20;59.70;;;;;;5057218;28;20017;-22
2021/12/03 05:40:29;;;;;;;4.53;4.13;;;16.10;59.70;;;;;;5057231;28;20029;-27
2021/12/03 05:42:55;;;;;;;4.45;4.00;;;16.10;59.70;;;;;;5056977;28;20017;-25
2021/12/03 05:45:24;;;;;;;4.50;4.20;;;16.10;59.70;;;;;;5057089;28;20108;-26
2021/12/03 05:47:50;;;;;;;4.13;3.83;;;16.10;59.70;;;;;;5056915;28;20048;-27
2021/12/03 05:50:15;;;;;;;4.93;4.43;;;16.10;59.90;;;;;;5056903;28;20053;-25
2021/12/03 05:52:41;;;;;;;4.35;4.05;;;16.10;59.80;;;;;;5056921;28;20021;-20
2021/12/03 05:55:07;;;;;;;4.03;3.72;;;16.00;60.00;;;;;;5056794;28;20509;-28
2021/12/03 05:57:33;;;;;;;4.22;3.92;;;16.00;59.80;;;;;;5055743;28;20107;-24
2021/12/03 05:59:59;;;;;;;4.18;3.88;;;16.10;59.90;;;;;;5048766;28;20052;-23
2021/12/03 06:02:24;;;;;;;3.90;3.65;;;16.10;59.70;;;;;;5039065;28;20569;-22
2021/12/03 06:04:50;;;;;;;4.30;3.38;;;16.10;60.20;;;;;;5027476;28;20056;-24
2021/12/03 06:07:16;;;;;;;4.30;3.75;;;16.00;60.50;;;;;;5023601;28;20048;-24
2021/12/03 06:09:42;;;;;;;4.50;3.88;;;16.00;61.10;;;;;;5025492;28;20052;-22
2021/12/03 06:12:09;;;;;;;3.70;3.40;;;16.00;62.10;;;;;;5043569;28;20097;-26
2021/12/03 06:14:34;;;;;;;5.53;3.63;;;15.80;62.10;;;;;;5032968;28;20049;-24
2021/12/03 06:17:00;;;;;;;4.70;3.80;;;15.80;62.10;;;;;;5050610;28;20559;-25
2021/12/03 06:19:26;;;;;;;3.60;3.30;;;15.80;62.30;;;;;;5070540;28;20557;-23
2021/12/03 06:21:51;;;;;;;4.20;3.90;;;15.90;62.40;;;;;;5074437;28;20044;-20
2021/12/03 06:24:17;;;;;;;3.42;3.13;;;15.90;62.60;;;;;;5075294;28;20048;-23
2021/12/03 06:26:42;;;;;;;4.25;3.30;;;16.00;62.10;;;;;;5074713;28;20041;-27
2021/12/03 06:29:08;;;;;;;5.78;3.78;;;16.00;62.10;;;;;;5075031;28;20075;-22
2021/12/03 06:31:33;;;;;;;3.20;3.00;;;16.00;61.80;;;;;;5075078;28;20512;-24
2021/12/03 06:33:59;;;;;;;3.40;3.10;;;16.00;61.90;;;;;;5074369;28;20098;-25
2021/12/03 06:36:25;;;;;;;3.13;2.92;;;16.00;61.70;;;;;;5074953;28;20052;-25
2021/12/03 06:38:51;;;;;;;4.80;3.50;;;16.00;61.70;;;;;;5078244;28;20508;-29
2021/12/03 06:41:16;;;;;;;4.30;3.90;;;16.00;61.80;;;;;;5079262;28;20093;-22
2021/12/03 06:43:42;;;;;;;5.07;3.70;;;16.10;61.90;;;;;;5078519;28;20071;-27
2021/12/03 06:46:07;;;;;;;4.53;4.13;;;16.00;61.70;;;;;;5079153;28;20041;-24
2021/12/03 06:48:33;;;;;;;6.63;5.93;;;16.10;61.60;;;;;;5078904;28;20076;-26
2021/12/03 06:50:58;;;;;;;8.30;6.47;;;16.10;61.50;;;;;;5078247;28;20058;-21
2021/12/03 06:53:28;;;;;;;12.13;7.90;;;16.00;61.50;;;;;;5078977;28;20079;-26
2021/12/03 06:55:57;;;;;;;17.58;10.85;;;16.00;61.50;;;;;;5066273;28;20091;-21
2021/12/03 06:58:22;;;;;;;18.85;12.73;;;16.00;61.70;;;;;;5058632;28;20098;-22
2021/12/03 07:00:51;;;;;;;27.50;15.32;;;16.00;61.70;;;;;;5058137;28;20041;-23
2021/12/03 07:03:16;;;;;;;29.33;16.35;;;16.00;61.80;;;;;;5058669;28;20094;-27
2021/12/03 07:05:42;;;;;;;37.17;18.88;;;16.00;61.70;;;;;;5057986;28;20041;-26
2021/12/03 07:08:07;;;;;;;35.60;20.33;;;16.00;61.70;;;;;;5058650;28;20124;-23
2021/12/03 07:10:33;;;;;;;38.60;21.30;;;16.00;61.70;;;;;;4702221;28;10000421;-22
2021/12/03 07:12:59;;;;;;;39.20;20.58;;;16.00;61.50;;;;;;5029475;28;20371;-25
2021/12/03 07:15:25;;;;;;;39.30;21.60;;;16.00;61.60;;;;;;5040322;28;20033;-23
2021/12/03 07:17:51;;;;;;;34.90;19.55;;;16.00;61.30;;;;;;5034379;28;20042;-28
2021/12/03 07:20:19;;;;;;;37.10;20.05;;;16.00;61.40;;;;;;5034536;28;20128;-20
2021/12/03 07:22:45;;;;;;;36.08;21.23;;;16.00;62.20;;;;;;5033877;28;20045;-27
2021/12/03 07:25:11;;;;;;;40.47;21.88;;;16.00;61.50;;;;;;5025247;28;20529;-24
2021/12/03 07:27:36;;;;;;;48.38;23.40;;;16.00;61.40;;;;;;5037117;28;20053;-23
2021/12/03 07:30:03;;;;;;;37.85;21.65;;;16.10;61.40;;;;;;5024572;28;20046;-22
2021/12/03 07:32:30;;;;;;;37.42;20.60;;;16.10;61.20;;;;;;5028246;28;20057;-22
2021/12/03 07:34:55;;;;;;;35.80;19.98;;;16.10;61.30;;;;;;5034616;28;20065;-26
2021/12/03 07:37:21;;;;;;;43.30;19.85;;;16.10;61.40;;;;;;5030779;28;20506;-21
2021/12/03 07:39:47;;;;;;;36.25;19.75;;;16.10;61.60;;;;;;5027682;28;20510;-26
2021/12/03 07:42:13;;;;;;;40.60;20.50;;;16.00;61.30;;;;;;5040885;28;20048;-21
2021/12/03 07:44:38;;;;;;;34.42;18.08;;;16.00;61.50;;;;;;5038991;28;20060;-20
2021/12/03 07:47:04;;;;;;;33.45;18.08;;;16.00;61.60;;;;;;5034891;28;20187;-22
2021/12/03 07:49:29;;;;;;;35.03;18.67;;;16.00;61.60;;;;;;5035740;28;20041;-24
2021/12/03 07:51:55;;;;;;;38.10;19.65;;;15.90;61.60;;;;;;5040701;28;20037;-23
2021/12/03 07:54:21;;;;;;;34.67;17.95;;;15.90;61.60;;;;;;5031324;28;20038;-22
2021/12/03 07:56:47;;;;;;;32.15;17.38;;;15.90;61.70;;;;;;5053167;28;20654;-26
2021/12/03 07:59:13;;;;;;;31.88;18.13;;;15.90;61.80;;;;;;5044430;28;20042;-25
2021/12/03 08:01:41;;;;;;;32.58;16.95;;;16.00;61.80;;;;;;5037506;28;20128;-26
2021/12/03 08:04:07;;;;;;;34.40;18.02;;;16.10;61.30;;;;;;5035692;28;20072;-26
2021/12/03 08:06:33;;;;;;;32.53;17.98;;;16.20;61.00;;;;;;5030336;28;20054;-33
2021/12/03 08:08:58;;;;;;;29.67;16.88;;;16.10;61.50;;;;;;5023238;28;20049;-20
2021/12/03 08:11:24;;;;;;;28.52;15.82;;;16.10;61.20;;;;;;5034679;28;20512;-21
2021/12/03 08:13:49;;;;;;;30.17;17.45;;;16.00;61.20;;;;;;5031265;28;20038;-23
2021/12/03 08:16:15;;;;;;;30.20;16.42;;;16.00;61.30;;;;;;5040286;28;20033;-22
2021/12/03 08:18:40;;;;;;;28.45;17.65;;;16.00;61.10;;;;;;5030595;28;20047;-21
2021/12/03 08:21:06;;;;;;;30.90;18.25;;;16.00;61.30;;;;;;5022820;28;20049;-23
2021/12/03 08:23:32;;;;;;;27.48;16.33;;;16.10;61.40;;;;;;5037078;28;20125;-26
2021/12/03 08:25:58;;;;;;;26.48;15.82;;;16.00;61.40;;;;;;5033656;28;20444;-31
2021/12/03 08:28:23;;;;;;;26.80;15.63;;;16.10;61.50;;;;;;5027385;28;20045;-31
2021/12/03 08:30:49;;;;;;;24.92;15.15;;;16.00;61.60;;;;;;5035412;28;20083;-26
2021/12/03 08:33:15;;;;;;;25.75;15.50;;;16.00;61.90;;;;;;5035656;28;20064;-27
2021/12/03 08:35:41;;;;;;;26.58;15.82;;;16.10;61.50;;;;;;5037372;28;20037;-28
2021/12/03 08:38:07;;;;;;;25.73;15.57;;;16.00;61.90;;;;;;5047115;28;20055;-26
2021/12/03 08:40:33;;;;;;;30.20;15.75;;;16.10;61.90;;;;;;5033275;28;20074;-27
2021/12/03 08:42:58;;;;;;;24.70;14.85;;;16.00;61.90;;;;;;5028639;28;20037;-24
2021/12/03 08:45:25;;;;;;;22.52;14.75;;;16.10;62.00;;;;;;5039918;28;20489;-26
2021/12/03 08:47:54;;;;;;;24.08;14.52;;;16.20;61.90;;;;;;5049175;28;20522;-21
2021/12/03 08:50:28;;;;;;;24.95;14.60;;;16.10;61.90;;;;;;5033139;28;20506;-21
2021/12/03 08:55:39;;;;;;;26.67;14.38;;;16.10;62.30;;;;;;5050840;28;19927;-22
2021/12/03 08:58:05;;;;;;;23.17;13.95;;;16.10;62.40;;;;;;5052356;28;20083;-24
2021/12/03 09:00:31;;;;;;;22.48;13.90;;;16.10;62.30;;;;;;5053782;28;20120;-31
2021/12/03 09:02:56;;;;;;;25.83;14.57;;;16.10;62.50;;;;;;5053301;28;20056;-21
2021/12/03 09:05:27;;;;;;;26.10;14.85;;;16.10;62.40;;;;;;5052226;28;20047;-28
2021/12/03 09:07:53;;;;;;;24.50;14.85;;;16.20;62.50;;;;;;5053551;28;20509;-27
2021/12/03 09:10:18;;;;;;;21.15;13.52;;;16.10;62.50;;;;;;5040235;28;20056;-29
2021/12/03 09:12:44;;;;;;;23.60;14.75;;;16.20;62.60;;;;;;5036143;28;20054;-21
2021/12/03 09:15:13;;;;;;;22.10;13.60;;;16.20;62.50;;;;;;5035714;28;20049;-24
2021/12/03 09:25:06;;;;;;;20.05;12.73;;;16.20;62.70;;;;;;5043126;28;20426;-26
2021/12/03 09:27:31;;;;;;;18.67;12.15;;;16.20;62.80;;;;;;5036159;28;20041;-27
2021/12/03 09:29:57;;;;;;;19.23;12.18;;;16.20;62.90;;;;;;5030922;28;20402;-21
2021/12/03 09:32:27;;;;;;;24.92;13.10;;;16.20;62.80;;;;;;5034086;28;20762;-26
2021/12/03 09:34:52;;;;;;;19.00;12.27;;;16.20;62.90;;;;;;5029712;28;20064;-21
2021/12/03 09:37:18;;;;;;;20.00;11.80;;;16.20;63.40;;;;;;5027736;28;20033;-23
2021/12/03 09:39:45;;;;;;;18.55;11.75;;;16.20;63.10;;;;;;5033940;28;20121;-24
2021/12/03 09:42:12;;;;;;;19.30;12.18;;;16.20;63.20;;;;;;5033728;28;20033;-21
2021/12/03 09:44:43;;;;;;;19.85;13.27;;;16.20;63.20;;;;;;5038750;28;20043;-25
2021/12/03 09:47:09;;;;;;;20.00;10.57;;;16.20;62.90;;;;;;5033841;28;20073;-22
2021/12/03 09:49:36;;;;;;;18.35;12.00;;;16.20;63.10;;;;;;5045217;28;20067;-24
2021/12/03 09:55:01;;;;;;;15.40;11.07;;;16.20;63.20;;;;;;4990033;28;20040;-29
2021/12/03 10:15:53;;;;;;;17.00;10.93;;;16.40;62.50;;;;;;4955363;28;20043;-24
2021/12/03 10:21:17;;;;;;;15.73;10.40;;;16.20;63.10;;;;;;5009247;28;20170;-24
2021/12/03 10:31:55;;;;;;;17.23;11.27;;;16.20;63.20;;;;;;5031886;28;20061;-22
2021/12/03 10:50:25;;;;;;;17.33;11.52;;;16.30;63.40;;;;;;5045277;28;20067;-23
2021/12/03 10:53:08;;;;;;;16.00;11.40;;;16.30;63.50;;;;;;5005174;28;20556;-30
2021/12/03 11:57:18;;;;;;;7.80;6.55;;;16.50;63.40;;;;;;5029057;28;20136;-27
2021/12/03 12:36:28;;;;;;;5.50;5.00;;;16.20;63.60;;;;;;5032123;28;20120;-26
2021/12/03 13:58:37;;;;;;;5.20;3.22;;;16.50;65.90;;;;;;5033350;28;20596;-24
2021/12/03 14:40:22;;;;;;;5.97;2.83;;;16.40;65.80;;;;;;5036387;28;20131;-28
2021/12/03 14:43:01;;;;;;;8.55;2.60;;;16.40;65.70;;;;;;5029421;28;20049;-31
2021/12/03 14:56:15;;;;;;;11.23;6.65;;;16.60;65.70;;;;;;5029165;28;20049;-26
2021/12/03 15:01:19;;;;;;;14.05;8.27;;;16.60;65.70;;;;;;5032847;28;20687;-23
2021/12/03 15:08:57;;;;;;;23.38;9.93;;;16.60;66.10;;;;;;5048063;28;20049;-25
2021/12/03 15:11:50;;;;;;;15.30;8.73;;;16.60;65.80;;;;;;5034028;28;20119;-23
2021/12/03 15:24:57;;;;;;;15.45;8.70;;;16.70;65.20;;;;;;5052551;28;20071;-21
2021/12/03 15:35:16;;;;;;;14.02;7.85;;;16.80;65.30;;;;;;5033183;28;20052;-25
2021/12/03 16:04:34;;;;;;;13.30;7.28;;;16.80;67.80;;;;;;5032697;28;20053;-29
2021/12/03 16:07:30;;;;;;;10.38;5.65;;;16.80;67.80;;;;;;5031680;28;20394;-31
2021/12/03 16:25:56;;;;;;;11.07;5.57;;;16.90;68.50;;;;;;5040645;28;20108;-33
2021/12/03 16:52:42;;;;;;;7.25;4.40;;;16.90;67.80;;;;;;5031629;28;20060;-27
2021/12/03 16:55:08;;;;;;;4.78;4.28;;;16.90;67.60;;;;;;5032023;28;20124;-26
2021/12/03 16:57:36;;;;;;;10.80;4.70;;;17.00;67.70;;;;;;5031908;28;20052;-27
2021/12/03 17:00:16;;;;;;;7.00;4.32;;;17.00;67.50;;;;;;5033662;28;20079;-25
2021/12/03 17:03:08;;;;;;;8.75;4.55;;;17.00;67.50;;;;;;5033400;28;20059;-25
2021/12/03 17:11:35;;;;;;;7.45;4.30;;;17.00;67.60;;;;;;4968993;28;20061;-26
2021/12/03 17:52:27;;;;;;;5.57;3.38;;;17.10;67.20;;;;;;5032575;28;20564;-26
2021/12/03 17:57:40;;;;;;;6.68;3.58;;;17.10;67.10;;;;;;5031420;28;20029;-28
2021/12/03 18:00:13;;;;;;;6.60;3.40;;;17.10;67.20;;;;;;5009388;28;20056;-30
2021/12/03 18:02:46;;;;;;;6.18;3.70;;;17.10;66.90;;;;;;5016474;28;20543;-25
2021/12/03 18:53:37;;;;;;;3.05;2.78;;;16.90;66.10;;;;;;5035138;28;20048;-25
2021/12/03 18:56:05;;;;;;;3.55;2.88;;;16.90;66.20;;;;;;5034859;28;20040;-26
2021/12/03 18:58:32;;;;;;;3.28;2.38;;;16.90;66.20;;;;;;5017699;28;20025;-29
2021/12/03 19:00:58;;;;;;;3.92;2.63;;;16.90;66.10;;;;;;5035196;28;20049;-23
2021/12/03 19:08:36;;;;;;;5.78;2.88;;;16.80;66.10;;;;;;5034973;28;20105;-27
2021/12/03 19:11:15;;;;;;;2.97;2.47;;;16.80;66.10;;;;;;5034949;28;20041;-26
2021/12/03 19:13:41;;;;;;;5.40;2.90;;;16.80;66.20;;;;;;5034114;28;20018;-25
2021/12/03 19:16:10;;;;;;;2.92;2.72;;;16.80;66.00;;;;;;5043890;28;20044;-21
2021/12/03 19:18:36;;;;;;;2.75;2.45;;;16.80;65.90;;;;;;5054667;28;20017;-23
2021/12/03 19:21:07;;;;;;;2.60;2.40;;;16.80;65.90;;;;;;5054709;28;20144;-28
2021/12/03 19:23:33;;;;;;;3.42;2.78;;;16.80;66.00;;;;;;5054317;28;20046;-25
2021/12/03 19:25:58;;;;;;;2.70;2.40;;;16.80;65.90;;;;;;5054804;28;20029;-26
2021/12/03 19:28:24;;;;;;;2.65;2.45;;;16.70;65.90;;;;;;5054423;28;20508;-22
2021/12/03 19:30:49;;;;;;;3.53;2.70;;;16.70;66.10;;;;;;5054702;28;20037;-24
2021/12/03 19:33:15;;;;;;;2.70;2.50;;;16.60;66.10;;;;;;5054467;28;20394;-25
2021/12/03 19:35:41;;;;;;;2.10;1.90;;;16.60;66.20;;;;;;5026450;28;20159;-26
2021/12/03 19:38:07;;;;;;;2.75;2.40;;;16.70;66.40;;;;;;5020478;28;20025;-29
2021/12/03 19:40:36;;;;;;;3.47;2.70;;;16.60;66.10;;;;;;5027657;28;20132;-29
2021/12/03 19:43:05;;;;;;;2.90;2.40;;;16.60;66.10;;;;;;5028932;28;20114;-25
2021/12/03 19:45:35;;;;;;;2.78;2.30;;;16.60;66.30;;;;;;5031478;28;20082;-22
2021/12/03 19:48:08;;;;;;;4.45;2.38;;;16.60;66.30;;;;;;5037678;28;20461;-29
2021/12/03 19:50:43;;;;;;;4.45;2.28;;;16.70;66.30;;;;;;5033621;28;20035;-25
2021/12/03 19:53:28;;;;;;;3.60;2.10;;;16.60;66.20;;;;;;5030035;28;20025;-25
2021/12/03 19:55:54;;;;;;;3.90;2.40;;;16.60;66.50;;;;;;5029908;28;20041;-29
2021/12/03 19:58:23;;;;;;;2.92;1.90;;;16.60;66.40;;;;;;5029449;28;20034;-23
2021/12/03 20:00:50;;;;;;;2.20;2.00;;;16.60;66.50;;;;;;5027604;28;20646;-22
2021/12/03 20:03:16;;;;;;;2.70;2.03;;;16.60;66.50;;;;;;5022742;28;20026;-23
2021/12/03 20:05:42;;;;;;;1.92;1.77;;;16.60;66.50;;;;;;5007930;28;20055;-23
2021/12/03 20:08:08;;;;;;;1.73;1.63;;;16.70;66.30;;;;;;5025461;28;20157;-22
2021/12/03 20:10:38;;;;;;;3.65;2.28;;;16.60;66.30;;;;;;5031656;28;20071;-22
2021/12/03 20:13:06;;;;;;;4.60;1.95;;;16.70;66.40;;;;;;4680463;28;10001067;-21
2021/12/03 20:15:37;;;;;;;2.08;1.80;;;16.70;66.30;;;;;;5033998;28;20073;-27
2021/12/03 20:18:24;;;;;;;3.35;1.85;;;16.80;66.10;;;;;;5028410;28;20034;-28
2021/12/03 20:20:49;;;;;;;2.92;1.67;;;16.80;65.90;;;;;;5032820;28;20128;-24
2021/12/03 20:23:32;;;;;;;4.05;1.98;;;16.80;66.30;;;;;;5031542;28;20117;-28
2021/12/03 20:26:12;;;;;;;2.90;2.17;;;16.80;66.50;;;;;;5029628;28;20061;-25
2021/12/03 20:28:53;;;;;;;2.00;1.90;;;16.80;66.30;;;;;;5025446;28;20037;-23
2021/12/03 20:31:22;;;;;;;1.92;1.67;;;16.80;66.70;;;;;;5039795;28;20102;-27
2021/12/03 20:38:59;;;;;;;2.10;1.70;;;16.90;66.70;;;;;;5020419;28;20067;-28
2021/12/03 20:41:33;;;;;;;3.03;2.00;;;16.90;67.00;;;;;;5032625;28;20059;-27